Portada
METAR-TAF:

METAR-TAF

Aeropuertos :

Aeropuerto de Zaragoza

Zaragoza, España

latitud: 41-40N, longitud: 001-01W, altitud: 263 m

Observación

El informe se hizo hace 16 minutos, a las 04:30 UTC
Viento 8 kt del oeste
Temperatura 6°C
Humedad 93%
Presión 1026 hPa
Visibilidad 10 km o más
Escasas nubes a una altura de 4000 ft

METAR: LEZG 180430Z 28008KT 9999 FEW040 06/05 Q1026

Hora: 05:46 (04:46 UTC)

Pronóstico

El informe se hizo hace 5 horas y 46 minutos, a las 23:00 UTC
Pronóstico válido del 18 a las 00 UTC al 18 a las 24 UTC
Viento 12 kt del oeste
Visibilidad 10 km o más
Escasas nubes a una altura de 4000 ft
Evolucionando progresivamente
del 18 a las 16 UTC al 18 a las 18 UTC
Viento 10 kt del suroeste
Temporalmente
del 18 a las 17 UTC al 18 a las 24 UTC
Viento 3 kt con dirección variable

TAF: LEZG 172300Z 1800/1824 28012KT 9999 FEW040 TX14/1814Z TN04/1806Z BECMG 1816/1818 22010KT TEMPO 1817/1824 VRB03KT

Observaciones y pronósticos meteorológicos de más de 4000 aeropuertos (mensajes METAR y TAF).

Los puntos amarillos y rojos representan las estaciones disponibles.

Ponga el ratón en el punto deseado para ver el nombre de la estación.

Haga clic para ver las observaciones y los pronósticos meteorológicos.

Para cambiar el mapa : haga clic en los botones verdes con una cruz de color negro para hacer un zoom, en el botón verde con un guión para alejar o en las flechas verdes para mapas adyacentes.


METAR-TAF: